createdAt,value
2022-09-28T05:16:42.170Z,8.40
2022-09-28T05:30:43.281Z,8.50
2022-09-28T05:37:55.381Z,8.50
2022-09-28T05:47:12.400Z,8.30
2022-09-28T05:49:40.450Z,8.10
2022-09-28T05:52:45.482Z,8.10
2022-09-28T05:55:43.949Z,8.00
2022-09-28T06:06:52.096Z,8.00
2022-09-28T06:28:08.563Z,7.90
2022-09-28T06:30:39.209Z,7.90
2022-09-28T06:33:15.377Z,7.90
2022-09-28T06:35:43.993Z,8.00
2022-09-28T06:38:12.461Z,8.00
2022-09-28T06:40:53.178Z,8.00
2022-09-28T06:43:34.608Z,8.00
2022-09-28T06:46:05.311Z,8.00
2022-09-28T06:48:36.976Z,8.00
2022-09-28T07:17:19.354Z,8.20
2022-09-28T07:28:00.184Z,8.20
2022-09-28T07:30:35.848Z,8.30
2022-09-28T07:33:50.278Z,8.40
2022-09-28T07:36:22.866Z,8.60
2022-09-28T07:39:35.589Z,8.80
2022-09-28T07:42:03.528Z,9.00
2022-09-28T07:44:34.196Z,9.10
2022-09-28T07:50:03.612Z,9.10
2022-09-28T07:52:33.766Z,9.10
2022-09-28T07:55:14.520Z,9.00
2022-09-28T07:58:12.406Z,9.00
2022-09-28T08:01:06.547Z,9.00
2022-09-28T08:04:11.940Z,8.90
2022-09-28T08:07:23.884Z,8.90
2022-09-28T08:10:11.570Z,9.00
2022-09-28T08:12:41.985Z,9.00
2022-09-28T08:15:54.239Z,8.90
2022-09-28T08:18:47.659Z,8.90
2022-09-28T08:21:38.217Z,8.80
2022-09-28T08:24:23.440Z,8.70
2022-09-28T08:27:03.338Z,8.70
2022-09-28T08:29:55.252Z,8.70
2022-09-28T08:32:41.035Z,8.60
2022-09-28T08:35:26.349Z,8.60
2022-09-28T08:38:20.757Z,8.60
2022-09-28T08:44:38.640Z,8.60
2022-09-28T08:47:36.603Z,8.60
2022-09-28T08:50:12.066Z,8.60
2022-09-28T08:52:48.019Z,8.70
2022-09-28T08:55:22.932Z,8.70
2022-09-28T08:57:59.336Z,8.80
2022-09-28T09:00:37.490Z,8.90
2022-09-28T09:03:15.961Z,9.10
2022-09-28T09:05:59.066Z,9.30
2022-09-28T09:08:40.072Z,9.50
2022-09-28T09:11:19.508Z,9.70
2022-09-28T09:14:18.491Z,9.80
2022-09-28T09:17:00.445Z,10.00
2022-09-28T09:19:45.869Z,10.20
2022-09-28T09:22:26.356Z,10.40
2022-09-28T09:25:03.745Z,10.50
2022-09-28T09:27:48.791Z,10.70
2022-09-28T09:30:20.537Z,11.00
2022-09-28T09:33:53.114Z,11.20
2022-09-28T10:24:00.166Z,12.20
2022-09-28T10:26:33.702Z,12.00
2022-09-28T10:29:27.482Z,12.10
2022-09-28T10:32:03.066Z,12.10
2022-09-28T10:37:22.472Z,12.20
2022-09-28T10:39:56.375Z,12.00
2022-09-28T10:42:39.240Z,12.10
2022-09-28T10:45:25.263Z,12.20
2022-09-28T10:48:22.221Z,12.40
2022-09-28T10:55:04.896Z,12.70
2022-09-28T10:58:03.795Z,12.90
2022-09-28T11:16:37.254Z,12.60
2022-09-28T11:57:34.023Z,12.80
2022-09-28T12:00:06.738Z,12.80
2022-09-28T12:02:38.312Z,12.70
2022-09-28T12:05:24.062Z,12.70
2022-09-28T12:07:59.304Z,12.60
2022-09-28T12:10:35.935Z,12.70
2022-09-28T12:13:10.624Z,12.90
2022-09-28T12:16:17.169Z,12.90
2022-09-28T12:18:42.840Z,12.90
2022-09-28T12:21:20.267Z,12.90
2022-09-28T12:23:50.185Z,12.90
2022-09-28T12:26:28.024Z,13.00
2022-09-28T12:29:01.215Z,13.00
2022-09-28T12:31:35.455Z,12.90
2022-09-28T12:34:03.960Z,13.00
2022-09-28T12:36:46.256Z,13.10
2022-09-28T12:39:46.827Z,13.10
2022-09-28T12:42:31.654Z,13.20
2022-09-28T12:45:17.504Z,13.00
2022-09-28T12:48:07.832Z,12.90
2022-09-28T12:50:48.640Z,13.00
2022-09-28T12:53:41.391Z,12.80
2022-09-28T12:56:18.086Z,12.80
2022-09-28T12:59:01.446Z,12.70
2022-09-28T13:01:45.267Z,12.70
2022-09-28T13:04:41.634Z,12.80
2022-09-28T13:30:00.771Z,12.80
2022-09-28T13:44:07.429Z,12.80
2022-09-28T13:46:46.052Z,12.80
2022-09-28T13:49:21.701Z,13.00
2022-09-28T13:52:04.213Z,13.20
2022-09-28T13:54:53.801Z,13.00
2022-09-28T13:57:27.444Z,12.90
2022-09-28T14:00:15.960Z,12.90
2022-09-28T14:02:49.547Z,12.90
2022-09-28T14:05:49.621Z,12.90
2022-09-28T14:08:31.969Z,12.80
2022-09-28T14:11:43.854Z,12.80
2022-09-28T14:15:02.514Z,12.70
2022-09-28T14:17:59.352Z,12.60
2022-09-28T14:20:33.165Z,12.60
2022-09-28T14:23:42.083Z,12.50
2022-09-28T14:26:41.971Z,12.50
2022-09-28T14:29:45.882Z,12.50
2022-09-28T14:32:59.591Z,12.60
2022-09-28T14:35:40.507Z,12.60
2022-09-28T14:38:37.458Z,12.50
2022-09-28T14:41:14.056Z,12.40
2022-09-28T14:44:02.688Z,12.60
2022-09-28T14:46:49.232Z,12.50
2022-09-28T14:49:47.605Z,12.60
2022-09-28T14:52:23.332Z,12.50
2022-09-28T14:54:54.745Z,12.50
2022-09-28T14:57:37.440Z,12.50
2022-09-28T15:00:22.793Z,12.60
2022-09-28T15:02:52.861Z,12.50
2022-09-28T15:05:30.545Z,12.40
2022-09-28T15:08:11.127Z,12.20
2022-09-28T15:10:42.803Z,12.30
2022-09-28T15:13:23.469Z,12.20
2022-09-28T15:15:56.005Z,12.20
2022-09-28T15:19:32.480Z,12.00
2022-09-28T15:22:07.218Z,11.90
2022-09-28T15:24:41.095Z,11.90
2022-09-28T15:27:18.909Z,12.10
2022-09-28T15:29:57.959Z,12.20
2022-09-28T15:32:32.146Z,12.20
2022-09-28T15:35:11.850Z,12.20
2022-09-28T15:37:40.776Z,12.00
2022-09-28T15:40:20.261Z,12.00
2022-09-28T15:42:50.546Z,11.80
2022-09-28T15:45:32.147Z,11.80
2022-09-28T15:48:20.923Z,11.70
2022-09-28T15:50:59.296Z,11.70
2022-09-28T15:53:28.354Z,11.70
2022-09-28T15:56:05.600Z,11.70
2022-09-28T15:58:33.819Z,11.60
2022-09-28T16:01:21.320Z,11.60
2022-09-28T16:03:49.554Z,11.60
2022-09-28T16:06:17.988Z,11.50
2022-09-28T16:08:48.870Z,11.40
2022-09-28T16:11:23.954Z,11.30
2022-09-28T16:14:01.624Z,11.10
2022-09-28T16:16:31.888Z,11.00
2022-09-28T16:19:01.797Z,10.90
2022-09-28T16:21:43.766Z,10.80
2022-09-28T16:24:21.276Z,10.70
2022-09-28T16:26:58.026Z,10.60
2022-09-28T16:29:28.713Z,10.60
2022-09-28T16:31:57.081Z,10.50
2022-09-28T16:34:28.620Z,10.50
2022-09-28T16:36:56.989Z,10.40
2022-09-28T16:39:25.439Z,10.40
2022-09-28T16:42:01.906Z,10.30
2022-09-28T16:44:33.156Z,10.30
2022-09-28T16:47:01.494Z,10.20
2022-09-28T16:49:32.265Z,10.10
2022-09-28T16:52:00.426Z,10.00
2022-09-28T16:54:47.798Z,9.90
2022-09-28T16:57:17.510Z,9.80
2022-09-28T16:59:45.926Z,9.80
2022-09-28T17:02:45.124Z,9.80
2022-09-28T17:05:10.304Z,9.60
2022-09-28T17:07:38.548Z,9.60
2022-09-28T17:10:16.696Z,9.60
2022-09-28T17:12:50.977Z,9.40
2022-09-28T17:15:19.705Z,9.40
2022-09-28T17:17:47.949Z,9.40
2022-09-28T17:20:22.526Z,9.30
2022-09-28T17:22:50.915Z,9.30
2022-09-28T17:25:19.194Z,9.20
2022-09-28T17:27:50.248Z,9.20
2022-09-28T17:30:25.939Z,9.20
2022-09-28T17:33:05.467Z,9.10
2022-09-28T17:35:37.511Z,9.00
2022-09-28T17:38:12.915Z,9.00
2022-09-28T17:40:48.518Z,8.90
2022-09-28T17:43:24.137Z,8.90
2022-09-28T17:45:52.432Z,8.90
2022-09-28T17:48:22.994Z,8.90
2022-09-28T17:50:51.729Z,8.80
2022-09-28T18:00:41.442Z,9.20
2022-09-28T18:03:17.504Z,8.90
2022-09-28T18:05:51.170Z,8.70
2022-09-28T18:08:20.987Z,8.50
2022-09-28T18:10:49.609Z,8.50
2022-09-28T18:13:20.568Z,8.40
2022-09-28T18:16:32.377Z,8.40
2022-09-28T18:19:32.713Z,8.40
2022-09-28T18:22:03.269Z,8.30
2022-09-28T18:25:09.485Z,8.40
2022-09-28T18:27:43.857Z,8.50
2022-09-28T18:30:21.237Z,8.60
2022-09-28T18:32:49.399Z,8.60
2022-09-28T18:35:30.640Z,8.50
2022-09-28T18:38:01.867Z,8.50
2022-09-28T19:00:27.095Z,8.30
2022-09-28T19:03:17.684Z,8.20
2022-09-28T19:07:39.427Z,8.20
2022-09-28T19:09:54.419Z,8.20
2022-09-28T19:16:36.771Z,8.20
2022-09-28T19:19:32.411Z,8.10
2022-09-28T19:22:28.897Z,8.10
2022-09-28T19:29:03.964Z,8.00
2022-09-28T19:32:01.348Z,8.00
2022-09-28T19:34:38.472Z,8.00
2022-09-28T19:37:46.787Z,8.00
2022-09-28T19:44:14.732Z,7.90
2022-09-28T20:07:10.297Z,7.80
2022-09-28T20:13:56.248Z,7.90
2022-09-28T20:16:37.978Z,7.80
2022-09-28T20:19:07.596Z,7.60
2022-09-28T20:48:21.648Z,7.20
2022-09-28T20:50:50.151Z,7.20
2022-09-28T20:53:23.881Z,7.20
2022-09-28T20:55:59.014Z,7.10
2022-09-28T21:27:19.817Z,6.80
2022-09-28T21:32:52.245Z,7.00
2022-09-28T21:51:18.802Z,6.90
2022-09-28T21:53:48.485Z,6.90
2022-09-28T21:56:18.765Z,6.80
2022-09-28T21:58:47.250Z,6.70
2022-09-28T22:01:19.678Z,6.70
